Time;durP1;ratioP1;P1;durP2;ratioP2;P2;SDS_P1;SDS_P2;PMS_P1;PMS_P2;Temp;Humidity;BMP_temperature;BMP_pressure;BME280_temperature;BME280_humidity;BME280_pressure;Samples;Min_cycle;Max_cycle;Signal;HPM_P1;HPM_P2
2020/12/15 00:00:10;;;;;;;12.77;9.75;;;7.20;99.90;;;;;;5092454;28;20023;-61
2020/12/15 00:02:36;;;;;;;10.20;9.05;;;7.10;99.90;;;;;;5111408;28;20028;-61
2020/12/15 00:05:03;;;;;;;11.48;9.45;;;7.20;99.90;;;;;;5110403;28;20369;-61
2020/12/15 00:07:29;;;;;;;11.63;8.98;;;7.10;99.90;;;;;;5111311;28;20085;-61
2020/12/15 00:09:55;;;;;;;12.52;9.13;;;7.20;99.90;;;;;;5092263;28;20031;-61
2020/12/15 00:12:20;;;;;;;11.93;9.35;;;7.10;99.90;;;;;;5092620;28;20168;-62
2020/12/15 00:14:46;;;;;;;12.50;8.93;;;7.20;99.90;;;;;;5092680;28;20028;-62
2020/12/15 00:17:11;;;;;;;13.95;9.07;;;7.20;99.90;;;;;;5092171;28;20084;-61
2020/12/15 00:19:37;;;;;;;12.27;9.18;;;7.30;99.90;;;;;;5110807;28;20040;-60
2020/12/15 00:22:06;;;;;;;10.82;9.35;;;7.20;99.90;;;;;;5092195;28;20024;-62
2020/12/15 00:24:31;;;;;;;12.48;9.88;;;7.00;99.90;;;;;;5095389;28;20024;-61
2020/12/15 00:26:58;;;;;;;11.95;9.55;;;6.90;99.90;;;;;;5096085;28;20028;-61
2020/12/15 00:29:24;;;;;;;11.82;8.95;;;6.80;99.90;;;;;;5096582;28;20027;-60
2020/12/15 00:31:49;;;;;;;12.88;9.68;;;6.80;99.90;;;;;;5096347;28;20024;-59
2020/12/15 00:34:15;;;;;;;13.82;10.05;;;6.90;99.90;;;;;;5095851;28;20484;-61
2020/12/15 00:36:41;;;;;;;13.82;10.32;;;6.80;99.90;;;;;;5095747;28;20075;-61
2020/12/15 00:39:06;;;;;;;11.38;9.85;;;6.80;99.90;;;;;;5095537;28;20114;-60
2020/12/15 00:41:32;;;;;;;14.43;9.23;;;6.70;99.90;;;;;;5096347;28;20035;-62
2020/12/15 00:43:58;;;;;;;12.52;9.40;;;6.70;99.90;;;;;;5095710;28;20493;-60
2020/12/15 00:46:23;;;;;;;12.02;9.23;;;6.80;99.90;;;;;;5096249;28;20532;-61
2020/12/15 00:48:49;;;;;;;13.13;9.70;;;6.70;99.90;;;;;;5114287;28;20038;-60
2020/12/15 00:51:19;;;;;;;11.70;9.57;;;6.70;99.90;;;;;;5113942;28;20521;-61
2020/12/15 00:53:46;;;;;;;13.95;9.18;;;6.70;99.90;;;;;;5096272;28;20020;-61
2020/12/15 00:56:14;;;;;;;15.57;11.50;;;6.80;99.90;;;;;;5095321;28;20059;-61
2020/12/15 00:58:40;;;;;;;14.68;9.68;;;6.60;99.90;;;;;;5095993;28;20035;-61
2020/12/15 01:01:06;;;;;;;12.15;7.95;;;6.60;99.90;;;;;;5095336;28;20028;-60
2020/12/15 01:03:33;;;;;;;10.75;8.60;;;6.60;99.90;;;;;;5095829;28;20015;-60
2020/12/15 01:05:59;;;;;;;9.45;8.07;;;6.70;99.90;;;;;;5113372;28;20102;-60
2020/12/15 01:08:24;;;;;;;12.68;9.32;;;6.60;99.90;;;;;;5113977;28;20514;-60
2020/12/15 01:10:51;;;;;;;13.05;8.90;;;6.70;99.90;;;;;;5095337;28;20329;-61
2020/12/15 01:13:17;;;;;;;11.55;8.35;;;6.70;99.90;;;;;;5095097;28;20034;-60
2020/12/15 01:15:43;;;;;;;10.10;8.35;;;6.60;99.90;;;;;;5095621;28;20106;-61
2020/12/15 01:18:08;;;;;;;11.30;8.52;;;6.60;99.90;;;;;;5113082;28;20035;-60
2020/12/15 01:20:34;;;;;;;11.30;8.68;;;6.70;99.90;;;;;;5095503;28;20020;-59
2020/12/15 01:23:00;;;;;;;9.85;8.32;;;6.60;99.90;;;;;;5113063;28;20027;-60
2020/12/15 01:25:25;;;;;;;10.90;8.82;;;6.60;99.90;;;;;;5113857;28;20028;-60
2020/12/15 01:27:51;;;;;;;10.95;8.48;;;6.70;99.90;;;;;;5095392;28;20035;-61
2020/12/15 01:30:16;;;;;;;12.50;9.23;;;6.70;99.90;;;;;;5113095;28;20482;-60
2020/12/15 01:32:42;;;;;;;10.98;7.55;;;6.80;99.90;;;;;;5095542;28;20024;-61
2020/12/15 01:35:08;;;;;;;10.82;8.02;;;6.80;99.90;;;;;;5094458;28;20028;-61
2020/12/15 01:37:34;;;;;;;9.20;7.95;;;6.90;99.90;;;;;;5113011;28;20055;-61
2020/12/15 01:40:00;;;;;;;9.68;8.15;;;6.80;99.90;;;;;;5112946;28;20032;-60
2020/12/15 01:42:26;;;;;;;9.15;6.85;;;6.80;99.90;;;;;;5113714;28;20507;-60
2020/12/15 01:44:51;;;;;;;10.52;7.57;;;6.80;99.90;;;;;;5113462;28;20031;-61
2020/12/15 01:47:17;;;;;;;11.57;7.88;;;6.80;99.90;;;;;;5094379;28;20032;-61
2020/12/15 01:49:43;;;;;;;11.45;8.75;;;6.70;99.90;;;;;;5112926;28;20169;-61
2020/12/15 01:52:11;;;;;;;8.85;7.78;;;6.60;99.90;;;;;;5112393;28;20031;-61
2020/12/15 01:54:37;;;;;;;12.27;8.00;;;6.50;99.90;;;;;;5113015;28;20039;-62
2020/12/15 01:57:46;;;;;;;9.00;7.68;;;6.50;99.90;;;;;;5093964;28;20385;-61
2020/12/15 02:00:12;;;;;;;13.57;7.60;;;6.50;99.90;;;;;;5112433;28;20118;-61
2020/12/15 02:02:40;;;;;;;8.38;6.97;;;6.50;99.90;;;;;;5113036;28;20024;-61
2020/12/15 02:05:06;;;;;;;10.43;7.60;;;6.50;99.90;;;;;;5112453;28;20020;-61
2020/12/15 02:07:32;;;;;;;12.48;7.88;;;6.50;99.90;;;;;;5094348;28;20055;-61
2020/12/15 02:09:57;;;;;;;9.07;6.68;;;6.40;99.90;;;;;;5111900;28;20111;-64
2020/12/15 02:12:23;;;;;;;8.73;7.10;;;6.40;99.90;;;;;;5112842;28;20117;-61
2020/12/15 02:14:49;;;;;;;10.65;8.45;;;6.40;99.90;;;;;;5112907;28;20180;-61
2020/12/15 02:17:14;;;;;;;13.30;8.60;;;6.40;99.90;;;;;;5112087;28;20087;-61
2020/12/15 02:19:40;;;;;;;9.48;7.10;;;6.40;99.90;;;;;;5094366;28;20039;-61
2020/12/15 02:22:06;;;;;;;7.88;5.95;;;6.50;99.90;;;;;;5093594;28;20055;-61
2020/12/15 02:24:31;;;;;;;8.13;7.22;;;6.60;99.90;;;;;;5112500;28;20376;-61
2020/12/15 02:26:57;;;;;;;9.80;7.63;;;6.60;99.90;;;;;;5112621;28;20111;-60
2020/12/15 02:29:23;;;;;;;10.98;7.22;;;6.50;99.90;;;;;;5112186;28;20445;-61
2020/12/15 02:31:49;;;;;;;7.75;6.60;;;6.40;99.90;;;;;;5112253;28;20031;-60
2020/12/15 02:34:15;;;;;;;9.43;7.38;;;6.50;99.90;;;;;;5093568;28;20024;-61
2020/12/15 02:36:42;;;;;;;11.00;7.93;;;6.60;99.90;;;;;;5111901;28;20122;-61
2020/12/15 02:39:11;;;;;;;10.20;7.47;;;6.60;99.90;;;;;;5093706;28;20077;-60
2020/12/15 02:41:36;;;;;;;9.90;7.43;;;6.50;99.90;;;;;;5111988;28;20503;-60
2020/12/15 02:44:03;;;;;;;8.65;6.80;;;6.50;99.90;;;;;;5111658;28;20043;-62
2020/12/15 02:46:29;;;;;;;10.52;6.65;;;6.50;99.90;;;;;;5111559;28;20074;-61
2020/12/15 02:48:56;;;;;;;10.32;7.88;;;6.50;99.90;;;;;;5093860;28;20134;-61
2020/12/15 02:51:22;;;;;;;10.40;7.88;;;6.70;99.90;;;;;;5111330;28;20102;-62
2020/12/15 02:53:48;;;;;;;10.20;8.50;;;6.50;99.90;;;;;;5111881;28;20023;-61
2020/12/15 02:56:21;;;;;;;11.60;7.43;;;6.50;99.90;;;;;;5111180;28;20562;-61
2020/12/15 02:58:47;;;;;;;11.48;8.38;;;6.50;99.90;;;;;;5093789;28;20035;-61
2020/12/15 03:01:14;;;;;;;10.88;7.88;;;6.40;99.90;;;;;;5092873;28;20031;-61
2020/12/15 03:03:39;;;;;;;12.10;7.65;;;6.50;99.90;;;;;;5112086;28;20055;-62
2020/12/15 03:06:05;;;;;;;12.20;9.15;;;6.40;99.90;;;;;;5110921;28;20082;-62
2020/12/15 03:08:31;;;;;;;11.20;8.45;;;6.30;99.90;;;;;;5111649;28;20345;-61
2020/12/15 03:10:57;;;;;;;11.95;9.18;;;6.40;99.90;;;;;;5111378;28;20028;-61
2020/12/15 03:13:22;;;;;;;10.18;8.18;;;6.40;99.90;;;;;;5092765;28;20064;-61
2020/12/15 03:15:48;;;;;;;10.38;7.90;;;6.40;99.90;;;;;;5093427;28;20037;-61
2020/12/15 03:18:14;;;;;;;14.75;8.55;;;6.40;99.90;;;;;;5111043;28;20032;-61
2020/12/15 03:20:46;;;;;;;10.35;8.65;;;6.40;99.90;;;;;;5092902;28;20434;-61
2020/12/15 03:23:12;;;;;;;10.32;8.20;;;6.40;99.90;;;;;;5111158;28;20024;-60
2020/12/15 03:25:37;;;;;;;10.15;8.30;;;6.40;99.90;;;;;;5111334;28;20487;-61
2020/12/15 03:28:03;;;;;;;13.30;9.68;;;6.40;99.90;;;;;;5092675;28;20028;-61
2020/12/15 03:30:28;;;;;;;11.43;7.90;;;6.40;99.90;;;;;;5093306;28;20028;-60
2020/12/15 03:32:54;;;;;;;9.23;7.78;;;6.40;99.90;;;;;;5111672;28;20395;-60
2020/12/15 03:35:20;;;;;;;9.50;7.43;;;6.50;99.90;;;;;;5092618;28;20027;-61
2020/12/15 03:37:46;;;;;;;10.35;8.45;;;6.60;99.90;;;;;;5111425;28;20056;-61
2020/12/15 03:40:12;;;;;;;8.77;7.75;;;6.70;99.90;;;;;;5110678;28;20066;-61
2020/12/15 03:42:37;;;;;;;11.23;8.25;;;6.60;99.90;;;;;;5111256;28;20058;-60
2020/12/15 03:45:05;;;;;;;11.27;8.60;;;6.60;99.90;;;;;;5110592;28;20099;-66
2020/12/15 03:47:31;;;;;;;9.95;8.23;;;6.60;99.90;;;;;;5091896;28;20038;-61
2020/12/15 03:49:57;;;;;;;10.90;8.15;;;6.70;99.90;;;;;;5110589;28;20020;-61
2020/12/15 03:52:22;;;;;;;10.45;7.90;;;6.70;99.90;;;;;;5110357;28;20337;-61
2020/12/15 03:54:48;;;;;;;11.70;8.38;;;6.80;99.90;;;;;;5111039;28;20375;-61
2020/12/15 03:57:13;;;;;;;10.50;9.07;;;6.80;99.90;;;;;;5110138;28;20114;-60
2020/12/15 03:59:39;;;;;;;10.27;8.35;;;6.70;99.90;;;;;;5113892;28;20118;-60
2020/12/15 04:02:05;;;;;;;12.63;8.88;;;6.70;99.90;;;;;;5096304;28;20024;-60
2020/12/15 04:04:30;;;;;;;12.32;8.93;;;6.80;99.90;;;;;;5115756;28;20030;-61
2020/12/15 04:06:56;;;;;;;11.98;10.13;;;6.60;99.90;;;;;;5096954;28;20039;-61
2020/12/15 04:09:22;;;;;;;9.63;8.07;;;6.70;99.90;;;;;;5114440;28;20065;-61
2020/12/15 04:11:47;;;;;;;10.88;8.88;;;6.50;99.90;;;;;;5096885;28;20028;-61
2020/12/15 04:14:13;;;;;;;12.23;9.15;;;6.50;99.90;;;;;;5114311;28;20486;-61
2020/12/15 04:16:38;;;;;;;11.73;8.90;;;6.50;99.90;;;;;;5114701;28;20032;-61
2020/12/15 04:19:04;;;;;;;11.75;9.93;;;6.50;99.90;;;;;;5096662;28;20024;-61
2020/12/15 04:21:30;;;;;;;10.38;8.60;;;6.50;99.90;;;;;;5096745;28;20053;-61
2020/12/15 04:23:56;;;;;;;11.60;9.10;;;6.40;99.90;;;;;;5114853;28;20148;-61
2020/12/15 04:26:21;;;;;;;12.82;8.57;;;6.40;99.90;;;;;;5113939;28;20027;-61
2020/12/15 04:28:47;;;;;;;12.20;9.77;;;6.40;99.90;;;;;;5096445;28;20110;-60
2020/12/15 04:31:13;;;;;;;12.85;10.15;;;6.30;99.90;;;;;;5095770;28;20023;-61
2020/12/15 04:33:38;;;;;;;13.45;9.35;;;6.30;99.90;;;;;;5114961;28;20106;-61
2020/12/15 04:36:04;;;;;;;12.70;9.23;;;6.40;99.90;;;;;;5114237;28;20341;-61
2020/12/15 04:38:30;;;;;;;13.05;9.40;;;6.30;99.90;;;;;;5095663;28;20416;-60
2020/12/15 04:40:55;;;;;;;12.65;9.45;;;6.40;99.90;;;;;;5096289;28;20135;-60
2020/12/15 04:43:21;;;;;;;12.40;9.13;;;6.40;99.90;;;;;;5095709;28;20047;-61
2020/12/15 04:45:48;;;;;;;12.82;9.65;;;6.30;99.90;;;;;;5114455;28;20055;-61
2020/12/15 04:48:22;;;;;;;14.60;9.60;;;6.30;99.90;;;;;;5095076;28;20031;-61
2020/12/15 04:50:52;;;;;;;11.63;9.55;;;6.40;99.90;;;;;;5095456;28;20472;-61
2020/12/15 04:53:23;;;;;;;13.55;9.90;;;6.40;99.90;;;;;;5094686;28;20028;-61
2020/12/15 04:55:50;;;;;;;10.32;9.23;;;6.40;99.90;;;;;;5095701;28;20449;-62
2020/12/15 04:58:20;;;;;;;13.20;9.27;;;6.40;99.90;;;;;;5094496;28;20070;-62
2020/12/15 05:00:46;;;;;;;12.68;9.45;;;6.40;99.90;;;;;;5095135;28;20024;-61
2020/12/15 05:03:19;;;;;;;14.13;10.32;;;6.50;99.90;;;;;;5094717;28;20028;-64
2020/12/15 05:05:46;;;;;;;13.32;9.45;;;6.50;99.90;;;;;;5095583;28;20082;-61
2020/12/15 05:08:15;;;;;;;14.95;11.52;;;6.50;99.90;;;;;;5112500;28;20479;-64
2020/12/15 05:10:41;;;;;;;12.80;9.02;;;6.90;99.90;;;;;;5113320;28;20028;-61
2020/12/15 05:13:07;;;;;;;15.15;10.35;;;6.70;99.90;;;;;;5095061;28;20039;-60
2020/12/15 05:15:33;;;;;;;14.15;9.25;;;6.60;99.90;;;;;;5094557;28;20030;-60
2020/12/15 05:18:04;;;;;;;17.33;10.15;;;6.70;99.90;;;;;;5113424;28;20062;-62
2020/12/15 05:20:31;;;;;;;13.77;9.68;;;6.60;99.90;;;;;;5112471;28;20024;-60
2020/12/15 05:22:57;;;;;;;12.43;9.65;;;6.60;99.90;;;;;;5113343;28;20034;-61
2020/12/15 05:25:41;;;;;;;13.35;9.70;;;6.60;99.90;;;;;;5112210;28;20077;-61
2020/12/15 05:28:12;;;;;;;15.95;9.63;;;6.80;99.90;;;;;;5108557;28;20036;-61
2020/12/15 05:30:38;;;;;;;10.80;9.50;;;6.80;99.90;;;;;;5112983;28;20023;-60
2020/12/15 05:33:13;;;;;;;12.63;10.20;;;6.90;99.90;;;;;;5113297;28;20380;-60
2020/12/15 05:35:39;;;;;;;15.98;9.65;;;6.70;99.90;;;;;;5077891;28;20050;-60
2020/12/15 05:38:06;;;;;;;12.30;9.73;;;6.60;99.90;;;;;;5091507;28;20056;-60
2020/12/15 05:40:34;;;;;;;13.57;10.63;;;6.70;99.90;;;;;;5092612;28;20039;-60
2020/12/15 05:43:02;;;;;;;12.00;9.82;;;6.70;99.90;;;;;;5092934;28;20032;-60
2020/12/15 05:45:31;;;;;;;13.52;10.18;;;6.60;99.90;;;;;;5090707;28;20445;-61
2020/12/15 05:48:10;;;;;;;11.48;9.35;;;6.60;99.90;;;;;;5092571;28;20533;-62
2020/12/15 05:50:38;;;;;;;19.33;10.25;;;6.60;99.90;;;;;;5092806;28;20099;-60
2020/12/15 05:53:05;;;;;;;13.18;9.75;;;6.60;99.90;;;;;;5091347;28;20078;-60
2020/12/15 05:55:31;;;;;;;14.95;9.75;;;6.60;99.90;;;;;;5090732;28;20082;-60
2020/12/15 05:57:58;;;;;;;16.65;10.77;;;6.60;99.90;;;;;;5092026;28;20050;-61
2020/12/15 06:00:28;;;;;;;14.93;10.90;;;6.60;99.90;;;;;;5092699;28;20020;-61
2020/12/15 06:03:01;;;;;;;15.30;10.15;;;6.70;99.90;;;;;;5093016;28;20115;-61
2020/12/15 06:05:30;;;;;;;13.70;9.68;;;6.60;99.90;;;;;;5092402;28;20158;-60
2020/12/15 06:07:57;;;;;;;12.45;9.60;;;6.60;99.90;;;;;;5090909;28;20126;-61
2020/12/15 06:10:25;;;;;;;11.13;9.30;;;6.50;99.90;;;;;;5090127;28;20036;-60
2020/12/15 06:12:52;;;;;;;16.17;11.43;;;6.60;99.90;;;;;;5089463;28;20105;-60
2020/12/15 06:15:18;;;;;;;14.50;10.80;;;6.80;99.90;;;;;;5089494;28;20114;-60
2020/12/15 06:17:49;;;;;;;16.60;10.43;;;6.90;99.90;;;;;;5090276;28;20036;-59
2020/12/15 06:20:19;;;;;;;13.90;9.70;;;7.00;99.90;;;;;;5090678;28;20478;-63
2020/12/15 06:22:46;;;;;;;17.75;10.23;;;6.90;99.90;;;;;;5089118;28;20028;-60
2020/12/15 06:25:12;;;;;;;13.80;10.05;;;6.90;99.90;;;;;;5089220;28;20069;-63
2020/12/15 06:27:38;;;;;;;19.15;9.30;;;6.70;99.90;;;;;;5088694;28;20036;-61
2020/12/15 06:30:06;;;;;;;15.93;10.80;;;6.70;99.90;;;;;;5090606;28;20032;-61
2020/12/15 06:32:31;;;;;;;15.45;11.55;;;6.70;99.90;;;;;;5090075;28;20105;-62
2020/12/15 06:34:57;;;;;;;15.77;10.57;;;6.80;99.90;;;;;;5090566;28;20032;-61
2020/12/15 06:37:24;;;;;;;15.80;10.38;;;6.90;99.90;;;;;;5100769;28;20090;-60
2020/12/15 06:39:55;;;;;;;18.88;10.45;;;6.70;99.90;;;;;;5092786;28;20367;-62
2020/12/15 06:42:22;;;;;;;18.33;10.57;;;6.80;99.90;;;;;;5089007;28;20053;-62
2020/12/15 06:45:04;;;;;;;18.80;12.27;;;6.90;99.90;;;;;;5092323;28;20297;-61
2020/12/15 06:47:31;;;;;;;15.05;10.77;;;6.90;99.90;;;;;;5108318;28;20032;-62
2020/12/15 06:50:08;;;;;;;16.65;10.85;;;6.70;99.90;;;;;;5110672;28;20027;-60
2020/12/15 06:52:34;;;;;;;19.45;11.27;;;6.60;99.90;;;;;;5084503;28;20028;-60
2020/12/15 06:55:00;;;;;;;16.67;11.00;;;6.50;99.90;;;;;;5090803;28;20500;-61
2020/12/15 06:57:33;;;;;;;27.50;11.20;;;6.50;99.90;;;;;;5071876;28;20358;-61
2020/12/15 07:00:04;;;;;;;14.13;10.65;;;6.50;99.90;;;;;;5091436;28;20474;-61
2020/12/15 07:02:30;;;;;;;16.98;10.50;;;6.60;99.90;;;;;;5072842;28;20461;-61
2020/12/15 07:05:18;;;;;;;16.15;11.23;;;6.60;99.90;;;;;;5073397;28;20024;-60
2020/12/15 07:08:06;;;;;;;16.52;11.07;;;6.50;99.90;;;;;;5091038;28;20036;-61
2020/12/15 07:10:33;;;;;;;17.92;10.95;;;6.50;99.90;;;;;;5072236;28;20204;-61
2020/12/15 07:12:59;;;;;;;15.15;10.52;;;6.60;99.90;;;;;;5071875;28;20048;-61
2020/12/15 07:15:26;;;;;;;17.02;10.43;;;6.80;99.90;;;;;;5071739;28;20067;-60
2020/12/15 07:17:52;;;;;;;14.38;10.60;;;6.90;99.90;;;;;;5072380;28;20036;-60
2020/12/15 07:20:19;;;;;;;14.55;10.32;;;6.90;99.90;;;;;;5090205;28;20107;-60
2020/12/15 07:22:45;;;;;;;14.35;10.18;;;6.60;99.90;;;;;;5071677;28;20024;-62
2020/12/15 07:25:13;;;;;;;18.13;10.82;;;6.50;99.90;;;;;;5072940;28;20021;-60
2020/12/15 07:27:41;;;;;;;17.55;11.15;;;6.50;99.90;;;;;;5072953;28;20413;-60
2020/12/15 07:30:08;;;;;;;19.80;11.00;;;6.60;99.90;;;;;;5090680;28;20023;-61
2020/12/15 07:32:36;;;;;;;16.98;10.90;;;6.60;99.90;;;;;;5071915;28;20251;-60
2020/12/15 07:35:04;;;;;;;16.40;10.25;;;6.70;99.90;;;;;;5072912;28;20482;-62
2020/12/15 07:37:30;;;;;;;20.55;10.68;;;6.80;99.90;;;;;;5090052;28;20087;-59
2020/12/15 07:40:01;;;;;;;16.58;11.80;;;7.00;99.90;;;;;;5090966;28;20139;-60
2020/12/15 07:42:27;;;;;;;14.90;11.07;;;7.00;99.90;;;;;;5090098;28;20027;-60
2020/12/15 07:44:58;;;;;;;17.25;11.13;;;7.00;99.90;;;;;;5072239;28;20114;-60
2020/12/15 07:47:25;;;;;;;18.67;10.70;;;6.90;99.90;;;;;;5055624;28;20092;-60
2020/12/15 07:49:53;;;;;;;12.68;10.80;;;7.00;99.90;;;;;;5090927;28;20361;-60
2020/12/15 07:52:39;;;;;;;13.80;10.32;;;6.80;99.90;;;;;;5090176;28;20043;-61
2020/12/15 07:55:15;;;;;;;16.58;12.20;;;6.70;99.90;;;;;;5072265;28;20025;-61
2020/12/15 07:57:42;;;;;;;17.02;11.85;;;6.70;99.90;;;;;;5072323;28;20043;-61
2020/12/15 08:00:15;;;;;;;16.48;10.65;;;6.90;99.90;;;;;;5071972;28;20427;-61
2020/12/15 08:02:42;;;;;;;17.95;11.23;;;6.80;99.90;;;;;;5090294;28;20031;-60
2020/12/15 08:05:13;;;;;;;17.60;10.55;;;6.80;99.90;;;;;;5072485;28;20449;-64
2020/12/15 08:07:53;;;;;;;18.77;11.80;;;6.80;99.90;;;;;;5090381;28;20043;-60
2020/12/15 08:10:28;;;;;;;20.42;12.13;;;6.90;99.90;;;;;;5072099;28;20024;-61
2020/12/15 08:13:02;;;;;;;17.55;10.48;;;6.80;99.90;;;;;;5072429;28;20051;-61
2020/12/15 08:15:29;;;;;;;15.32;10.55;;;6.90;99.90;;;;;;5089886;28;20050;-63
2020/12/15 08:17:56;;;;;;;15.73;11.10;;;6.90;99.90;;;;;;5090754;28;20032;-62
2020/12/15 08:20:29;;;;;;;19.08;11.60;;;6.90;99.90;;;;;;5090393;28;20059;-61
2020/12/15 08:23:10;;;;;;;16.02;10.40;;;7.00;99.90;;;;;;5072374;28;20433;-60
2020/12/15 08:25:45;;;;;;;16.83;12.13;;;7.00;99.90;;;;;;5089925;28;20017;-60
2020/12/15 08:28:21;;;;;;;15.57;10.70;;;7.00;99.90;;;;;;5090665;28;20074;-60
2020/12/15 08:30:51;;;;;;;16.63;10.98;;;7.10;99.90;;;;;;5090408;28;20461;-60
2020/12/15 08:33:34;;;;;;;15.05;10.73;;;7.20;99.90;;;;;;5071958;28;20020;-60
2020/12/15 08:36:01;;;;;;;15.75;11.35;;;7.10;99.90;;;;;;5071746;28;20031;-61
2020/12/15 08:38:27;;;;;;;18.25;10.80;;;7.10;99.90;;;;;;5071465;28;20032;-61
2020/12/15 08:41:01;;;;;;;14.60;10.88;;;7.20;99.90;;;;;;5090142;28;20025;-61
2020/12/15 08:43:27;;;;;;;14.10;9.50;;;7.20;99.90;;;;;;5071457;28;20120;-61
2020/12/15 08:45:53;;;;;;;14.30;9.88;;;7.10;99.90;;;;;;5092989;28;20315;-60
2020/12/15 08:48:25;;;;;;;13.23;9.93;;;7.00;99.90;;;;;;5075008;28;20034;-64
2020/12/15 08:50:51;;;;;;;13.98;10.07;;;7.10;99.90;;;;;;5075323;28;20028;-60
2020/12/15 08:53:19;;;;;;;16.88;11.43;;;7.20;99.90;;;;;;5093794;28;20398;-60
2020/12/15 08:55:45;;;;;;;19.15;11.27;;;7.20;99.90;;;;;;5094094;28;20024;-62
2020/12/15 08:58:12;;;;;;;18.42;10.75;;;7.30;99.90;;;;;;5093291;28;20497;-61
2020/12/15 09:00:42;;;;;;;19.65;10.98;;;7.40;99.90;;;;;;5074783;28;20436;-61
2020/12/15 09:03:14;;;;;;;13.38;10.10;;;7.40;99.90;;;;;;5075311;28;20050;-61
2020/12/15 09:05:52;;;;;;;14.30;10.15;;;7.40;99.90;;;;;;5093036;28;20340;-59
2020/12/15 09:08:18;;;;;;;22.70;11.48;;;7.30;99.90;;;;;;5075246;28;20040;-60
2020/12/15 09:10:44;;;;;;;13.77;10.13;;;7.20;99.90;;;;;;5093124;28;20047;-61
2020/12/15 09:13:10;;;;;;;14.18;10.38;;;7.10;99.90;;;;;;5075084;28;20453;-60
2020/12/15 09:15:56;;;;;;;16.63;10.43;;;7.20;99.90;;;;;;5092938;28;20020;-60
2020/12/15 09:18:33;;;;;;;21.17;10.20;;;7.40;99.90;;;;;;5074455;28;20516;-61
2020/12/15 09:21:09;;;;;;;24.13;11.73;;;7.30;99.90;;;;;;5093424;28;20028;-60
2020/12/15 09:23:35;;;;;;;17.13;11.43;;;7.40;99.90;;;;;;5074531;28;20118;-61
2020/12/15 09:26:01;;;;;;;15.70;10.52;;;7.50;99.90;;;;;;5075220;28;20123;-61
2020/12/15 09:28:27;;;;;;;18.02;9.57;;;7.60;99.90;;;;;;5093017;28;20704;-60
2020/12/15 09:30:53;;;;;;;20.00;10.98;;;7.50;99.90;;;;;;5075234;28;20104;-60
2020/12/15 09:33:19;;;;;;;15.88;10.68;;;7.60;99.90;;;;;;5074779;28;20058;-59
2020/12/15 09:35:47;;;;;;;15.13;10.77;;;7.70;99.90;;;;;;5074491;28;20052;-60
2020/12/15 09:38:16;;;;;;;17.10;9.82;;;7.70;99.90;;;;;;5074521;28;20058;-60
2020/12/15 09:40:42;;;;;;;17.42;11.13;;;7.80;99.90;;;;;;5092505;28;20243;-60
2020/12/15 09:43:08;;;;;;;15.43;11.52;;;7.80;99.90;;;;;;5093000;28;20111;-61
2020/12/15 09:45:33;;;;;;;24.65;11.70;;;7.80;99.90;;;;;;5057628;28;20403;-61
2020/12/15 09:48:01;;;;;;;15.25;10.23;;;7.70;99.90;;;;;;5093444;28;20039;-61
2020/12/15 09:50:27;;;;;;;14.85;10.68;;;7.70;99.90;;;;;;5073995;28;20089;-61
2020/12/15 09:52:52;;;;;;;33.72;13.23;;;7.80;99.90;;;;;;5074529;28;20118;-61
2020/12/15 09:55:18;;;;;;;15.25;11.20;;;7.80;99.90;;;;;;5074454;28;20046;-60
2020/12/15 09:57:44;;;;;;;18.55;10.98;;;7.90;99.90;;;;;;5073878;28;20069;-60
2020/12/15 10:00:10;;;;;;;17.65;10.70;;;7.60;99.90;;;;;;5092442;28;20028;-60
2020/12/15 10:02:35;;;;;;;20.17;10.88;;;7.50;99.90;;;;;;5091952;28;20417;-60
2020/12/15 10:05:01;;;;;;;15.50;11.23;;;7.70;99.90;;;;;;5092932;28;20060;-60
2020/12/15 10:07:26;;;;;;;13.38;10.20;;;7.50;99.90;;;;;;5073492;28;20422;-60
2020/12/15 10:09:57;;;;;;;18.98;10.80;;;7.60;99.90;;;;;;5074118;28;20020;-60
2020/12/15 10:12:24;;;;;;;19.23;11.02;;;7.50;99.90;;;;;;5073923;28;20058;-61
2020/12/15 10:14:49;;;;;;;15.93;11.00;;;7.40;99.90;;;;;;5092253;28;20024;-60
2020/12/15 10:17:15;;;;;;;15.55;10.10;;;7.40;99.90;;;;;;5073674;28;20334;-60
2020/12/15 10:19:41;;;;;;;14.82;10.32;;;7.50;99.90;;;;;;5091942;28;20165;-60
2020/12/15 10:22:06;;;;;;;12.35;9.35;;;7.40;99.90;;;;;;5091944;28;20410;-60
2020/12/15 10:24:32;;;;;;;14.43;10.00;;;7.40;99.90;;;;;;5073227;28;20024;-62
2020/12/15 10:26:58;;;;;;;14.10;9.50;;;7.30;99.90;;;;;;5092560;28;20133;-60
2020/12/15 10:29:26;;;;;;;15.93;10.88;;;7.30;99.90;;;;;;5092003;28;20032;-61
2020/12/15 10:31:52;;;;;;;13.45;9.85;;;7.20;99.90;;;;;;5073852;28;20020;-60
2020/12/15 10:34:18;;;;;;;15.18;10.30;;;7.30;99.90;;;;;;5092359;28;20099;-61
2020/12/15 10:36:47;;;;;;;15.80;9.65;;;7.30;99.90;;;;;;5091086;28;20078;-61
2020/12/15 10:39:13;;;;;;;17.33;10.60;;;7.20;99.90;;;;;;5091920;28;20114;-61
2020/12/15 10:41:41;;;;;;;15.43;10.35;;;7.30;99.90;;;;;;5073141;28;20046;-59
2020/12/15 10:44:13;;;;;;;14.30;10.35;;;7.40;99.90;;;;;;5073562;28;20020;-61
2020/12/15 11:00:36;;;;;;;14.38;9.57;;;7.60;99.90;;;;;;5299157;22;20053;-59
2020/12/15 11:03:02;;;;;;;11.05;9.02;;;7.60;99.90;;;;;;5035954;28;20108;-59
2020/12/15 11:05:30;;;;;;;13.75;10.48;;;7.50;99.90;;;;;;5036411;28;20440;-58
2020/12/15 11:07:56;;;;;;;13.80;9.70;;;7.50;99.90;;;;;;5053134;28;20075;-59
2020/12/15 11:10:22;;;;;;;11.98;9.70;;;7.50;99.90;;;;;;5054429;28;20017;-59
2020/12/15 11:12:47;;;;;;;12.30;9.48;;;7.60;99.90;;;;;;5052886;28;20031;-58
2020/12/15 11:15:13;;;;;;;15.55;9.30;;;7.60;99.90;;;;;;5034762;28;20496;-65
2020/12/15 11:17:39;;;;;;;12.05;9.43;;;7.80;99.90;;;;;;5053439;28;20088;-58
2020/12/15 11:20:06;;;;;;;13.20;9.18;;;7.70;99.90;;;;;;5034980;28;20037;-59
2020/12/15 11:22:32;;;;;;;11.85;9.52;;;7.80;99.90;;;;;;5036557;28;20383;-65
2020/12/15 11:24:58;;;;;;;14.55;9.95;;;7.90;99.90;;;;;;5035438;28;20068;-60
2020/12/15 11:27:23;;;;;;;14.15;9.48;;;7.90;99.90;;;;;;5036311;28;20033;-61
2020/12/15 11:29:49;;;;;;;12.57;9.18;;;7.90;99.90;;;;;;5036941;28;20388;-60
2020/12/15 11:32:15;;;;;;;20.13;10.82;;;8.00;99.90;;;;;;5036594;28;20040;-59
2020/12/15 11:34:40;;;;;;;12.10;9.23;;;8.00;99.90;;;;;;5037008;28;20105;-58
2020/12/15 11:37:09;;;;;;;14.88;9.50;;;7.90;99.90;;;;;;5035944;28;20367;-60
2020/12/15 11:39:36;;;;;;;16.63;10.13;;;8.00;99.90;;;;;;5035765;28;20090;-58
2020/12/15 11:42:08;;;;;;;14.05;9.88;;;7.90;99.90;;;;;;5053316;28;20122;-59
2020/12/15 11:44:34;;;;;;;12.88;9.43;;;7.80;99.90;;;;;;5036112;28;20111;-63
2020/12/15 11:49:41;;;;;;;12.10;9.27;;;7.90;99.90;;;;;;5053508;28;20032;-59
2020/12/15 11:52:08;;;;;;;18.95;10.07;;;7.90;99.90;;;;;;5052535;28;20040;-63
2020/12/15 11:54:35;;;;;;;13.43;10.70;;;7.90;99.90;;;;;;5035584;28;20025;-59
2020/12/15 11:57:04;;;;;;;14.15;10.55;;;7.80;99.90;;;;;;5035284;28;20025;-63
2020/12/15 11:59:30;;;;;;;13.88;10.55;;;7.80;99.90;;;;;;5053778;28;20090;-58
2020/12/15 12:01:57;;;;;;;14.10;10.13;;;7.70;99.90;;;;;;5053205;28;20424;-58
2020/12/15 12:04:22;;;;;;;13.25;9.73;;;7.70;99.90;;;;;;5054019;28;20057;-59
2020/12/15 12:06:48;;;;;;;17.35;10.25;;;7.60;99.90;;;;;;5053472;28;20036;-58
2020/12/15 12:09:13;;;;;;;13.38;9.50;;;7.60;99.90;;;;;;5052812;28;20165;-60
2020/12/15 12:11:39;;;;;;;21.13;11.60;;;7.60;99.90;;;;;;5035315;28;20120;-59
2020/12/15 12:14:05;;;;;;;13.00;10.38;;;7.60;99.90;;;;;;5052511;28;20033;-59
2020/12/15 12:16:30;;;;;;;14.48;10.02;;;7.70;99.90;;;;;;5035177;28;20036;-60
2020/12/15 12:18:56;;;;;;;15.13;9.95;;;7.70;99.90;;;;;;5034266;28;20072;-59
2020/12/15 12:21:22;;;;;;;18.08;11.45;;;7.70;99.90;;;;;;5039140;28;20032;-59
2020/12/15 12:23:48;;;;;;;17.95;12.30;;;7.70;99.90;;;;;;5038921;28;20417;-58
2020/12/15 12:26:15;;;;;;;14.00;10.85;;;7.70;99.90;;;;;;5055566;28;20017;-60
2020/12/15 12:28:41;;;;;;;18.58;11.13;;;7.70;99.90;;;;;;5056749;28;20059;-57
2020/12/15 12:31:06;;;;;;;20.45;12.48;;;7.70;99.90;;;;;;5056209;28;20033;-58
2020/12/15 12:33:32;;;;;;;19.83;11.93;;;7.70;99.90;;;;;;5057102;28;20044;-62
2020/12/15 12:35:58;;;;;;;24.35;12.35;;;7.80;99.90;;;;;;5038295;28;20036;-62
2020/12/15 12:38:24;;;;;;;17.73;11.85;;;7.90;99.90;;;;;;5022939;28;20044;-60
2020/12/15 12:40:49;;;;;;;20.50;12.25;;;7.90;99.90;;;;;;5038221;28;20052;-59
2020/12/15 12:43:16;;;;;;;21.30;13.02;;;7.80;99.90;;;;;;5055272;28;20025;-58
2020/12/15 12:45:42;;;;;;;19.33;13.10;;;7.80;99.90;;;;;;5037816;28;20025;-58
2020/12/15 12:48:09;;;;;;;17.27;12.13;;;7.80;99.90;;;;;;5037374;28;20040;-58
2020/12/15 12:50:35;;;;;;;15.10;10.88;;;7.80;99.90;;;;;;5037889;28;20047;-59
2020/12/15 12:53:01;;;;;;;20.65;12.90;;;7.80;99.90;;;;;;5054766;28;20056;-59
2020/12/15 12:55:26;;;;;;;17.40;11.68;;;8.00;99.90;;;;;;5037956;28;20049;-60
2020/12/15 12:57:53;;;;;;;19.55;13.45;;;8.10;99.90;;;;;;5037753;28;20029;-59
2020/12/15 13:00:19;;;;;;;15.43;10.38;;;8.20;99.90;;;;;;5054215;28;20051;-60